Terminal Aerodrome Forecast
Issued by NWS

Home | Current Version | Previous Version | Text Only | Print | Product List | Glossary On
Versions: 1 2 3 4 5 6 7 8 9 10 11 12 13 14 15 16 17 18 19 20 21 22 23 24 25 26 27
910
FTUS42 KGSP 251122
TAFAND
TAF
KAND 251122Z 2512/2612 08005KT 5SM -SHRA BR SCT007 OVC025
      TEMPO 2512/2514 2SM -SHRA BR OVC007
     FM251400 10005KT 6SM BR VCSH OVC012
     FM251600 13006KT P6SM VCTS OVC025CB
      TEMPO 2518/2522 4SM -TSRA OVC015CB
     FM260200 14004KT P6SM -SHRA OVC012
     FM260900 15003KT P6SM VCSH OVC007=

USA.gov is the U.S. government's official web portal to all federal, state and local government web resources and services.